sensor_id;sensor_type;location;lat;lon;timestamp;P1;durP1;ratioP1;P2;durP2;ratioP2
54269;SDS011;40181;51.560;13.000;2022-12-07T00:01:49;8.90;;;6.55;;
54269;SDS011;40181;51.560;13.000;2022-12-07T00:04:18;8.05;;;6.40;;
54269;SDS011;40181;51.560;13.000;2022-12-07T00:06:52;7.93;;;6.10;;
54269;SDS011;40181;51.560;13.000;2022-12-07T00:09:22;9.57;;;5.93;;
54269;SDS011;40181;51.560;13.000;2022-12-07T00:11:51;8.75;;;6.57;;
54269;SDS011;40181;51.560;13.000;2022-12-07T00:14:20;6.57;;;5.28;;
54269;SDS011;40181;51.560;13.000;2022-12-07T00:16:50;5.80;;;5.20;;
54269;SDS011;40181;51.560;13.000;2022-12-07T00:19:20;7.88;;;6.35;;
54269;SDS011;40181;51.560;13.000;2022-12-07T00:21:52;7.28;;;5.68;;
54269;SDS011;40181;51.560;13.000;2022-12-07T00:24:21;8.02;;;5.78;;
54269;SDS011;40181;51.560;13.000;2022-12-07T00:26:50;6.35;;;5.55;;
54269;SDS011;40181;51.560;13.000;2022-12-07T00:29:20;7.05;;;5.60;;
54269;SDS011;40181;51.560;13.000;2022-12-07T00:34:19;7.72;;;5.57;;
54269;SDS011;40181;51.560;13.000;2022-12-07T00:36:52;8.63;;;5.82;;
54269;SDS011;40181;51.560;13.000;2022-12-07T00:39:22;8.32;;;5.95;;
54269;SDS011;40181;51.560;13.000;2022-12-07T00:41:51;8.52;;;5.38;;
54269;SDS011;40181;51.560;13.000;2022-12-07T00:44:20;8.05;;;6.68;;
54269;SDS011;40181;51.560;13.000;2022-12-07T00:46:49;6.85;;;5.20;;
54269;SDS011;40181;51.560;13.000;2022-12-07T00:49:22;7.38;;;5.90;;
54269;SDS011;40181;51.560;13.000;2022-12-07T00:51:54;8.02;;;6.03;;
54269;SDS011;40181;51.560;13.000;2022-12-07T00:54:23;8.07;;;6.35;;
54269;SDS011;40181;51.560;13.000;2022-12-07T00:56:52;8.15;;;5.82;;
54269;SDS011;40181;51.560;13.000;2022-12-07T00:59:21;7.57;;;5.90;;
54269;SDS011;40181;51.560;13.000;2022-12-07T01:01:50;7.55;;;5.55;;
54269;SDS011;40181;51.560;13.000;2022-12-07T01:04:19;8.32;;;6.38;;
54269;SDS011;40181;51.560;13.000;2022-12-07T01:06:49;9.07;;;5.93;;
54269;SDS011;40181;51.560;13.000;2022-12-07T01:09:21;7.40;;;5.97;;
54269;SDS011;40181;51.560;13.000;2022-12-07T01:11:50;9.20;;;6.10;;
54269;SDS011;40181;51.560;13.000;2022-12-07T01:14:19;8.77;;;6.55;;
54269;SDS011;40181;51.560;13.000;2022-12-07T01:16:48;8.32;;;6.75;;
54269;SDS011;40181;51.560;13.000;2022-12-07T01:19:17;8.23;;;7.43;;
54269;SDS011;40181;51.560;13.000;2022-12-07T01:21:46;9.55;;;7.25;;
54269;SDS011;40181;51.560;13.000;2022-12-07T01:24:16;8.57;;;6.05;;
54269;SDS011;40181;51.560;13.000;2022-12-07T01:26:48;8.55;;;6.50;;
54269;SDS011;40181;51.560;13.000;2022-12-07T01:29:17;11.00;;;8.25;;
54269;SDS011;40181;51.560;13.000;2022-12-07T01:31:48;11.35;;;8.57;;
54269;SDS011;40181;51.560;13.000;2022-12-07T01:36:46;8.45;;;6.70;;
54269;SDS011;40181;51.560;13.000;2022-12-07T01:39:15;11.98;;;6.22;;
54269;SDS011;40181;51.560;13.000;2022-12-07T01:41:44;8.68;;;6.53;;
54269;SDS011;40181;51.560;13.000;2022-12-07T01:44:17;9.57;;;7.38;;
54269;SDS011;40181;51.560;13.000;2022-12-07T01:46:50;9.77;;;7.10;;
54269;SDS011;40181;51.560;13.000;2022-12-07T01:49:22;10.50;;;7.65;;
54269;SDS011;40181;51.560;13.000;2022-12-07T01:51:58;12.75;;;9.40;;
54269;SDS011;40181;51.560;13.000;2022-12-07T01:54:35;9.13;;;6.65;;
54269;SDS011;40181;51.560;13.000;2022-12-07T01:57:07;9.02;;;8.13;;
54269;SDS011;40181;51.560;13.000;2022-12-07T01:59:37;9.80;;;6.60;;
54269;SDS011;40181;51.560;13.000;2022-12-07T02:02:07;8.83;;;7.13;;
54269;SDS011;40181;51.560;13.000;2022-12-07T02:04:43;12.00;;;8.13;;
54269;SDS011;40181;51.560;13.000;2022-12-07T02:07:14;10.10;;;7.50;;
54269;SDS011;40181;51.560;13.000;2022-12-07T02:09:44;6.88;;;6.15;;
54269;SDS011;40181;51.560;13.000;2022-12-07T02:12:15;10.02;;;7.50;;
54269;SDS011;40181;51.560;13.000;2022-12-07T02:14:45;15.15;;;5.88;;
54269;SDS011;40181;51.560;13.000;2022-12-07T02:17:16;8.15;;;6.45;;
54269;SDS011;40181;51.560;13.000;2022-12-07T02:19:59;9.32;;;6.28;;
54269;SDS011;40181;51.560;13.000;2022-12-07T02:22:57;9.93;;;7.65;;
54269;SDS011;40181;51.560;13.000;2022-12-07T02:25:52;8.45;;;5.55;;
54269;SDS011;40181;51.560;13.000;2022-12-07T02:28:46;10.50;;;6.85;;
54269;SDS011;40181;51.560;13.000;2022-12-07T02:31:43;7.53;;;5.95;;
54269;SDS011;40181;51.560;13.000;2022-12-07T02:34:19;12.20;;;5.75;;
54269;SDS011;40181;51.560;13.000;2022-12-07T02:37:00;10.52;;;6.13;;
54269;SDS011;40181;51.560;13.000;2022-12-07T02:39:37;8.15;;;6.47;;
54269;SDS011;40181;51.560;13.000;2022-12-07T02:42:15;8.93;;;6.82;;
54269;SDS011;40181;51.560;13.000;2022-12-07T02:44:53;7.22;;;5.97;;
54269;SDS011;40181;51.560;13.000;2022-12-07T02:47:23;6.55;;;4.85;;
54269;SDS011;40181;51.560;13.000;2022-12-07T02:49:53;8.23;;;6.25;;
54269;SDS011;40181;51.560;13.000;2022-12-07T02:52:24;8.18;;;6.53;;
54269;SDS011;40181;51.560;13.000;2022-12-07T02:54:53;9.95;;;7.18;;
54269;SDS011;40181;51.560;13.000;2022-12-07T02:57:26;7.25;;;6.20;;
54269;SDS011;40181;51.560;13.000;2022-12-07T03:00:21;7.63;;;6.13;;
54269;SDS011;40181;51.560;13.000;2022-12-07T03:02:53;10.50;;;7.95;;
54269;SDS011;40181;51.560;13.000;2022-12-07T03:05:40;7.85;;;6.72;;
54269;SDS011;40181;51.560;13.000;2022-12-07T03:08:29;10.57;;;7.60;;
54269;SDS011;40181;51.560;13.000;2022-12-07T03:11:09;10.48;;;7.47;;
54269;SDS011;40181;51.560;13.000;2022-12-07T03:13:45;9.07;;;7.47;;
54269;SDS011;40181;51.560;13.000;2022-12-07T03:16:21;7.82;;;6.97;;
54269;SDS011;40181;51.560;13.000;2022-12-07T03:18:57;8.23;;;6.95;;
54269;SDS011;40181;51.560;13.000;2022-12-07T03:21:31;10.82;;;8.30;;
54269;SDS011;40181;51.560;13.000;2022-12-07T03:24:06;10.90;;;8.60;;
54269;SDS011;40181;51.560;13.000;2022-12-07T03:26:42;11.85;;;9.82;;
54269;SDS011;40181;51.560;13.000;2022-12-07T03:29:17;17.42;;;7.97;;
54269;SDS011;40181;51.560;13.000;2022-12-07T03:31:53;13.75;;;9.95;;
54269;SDS011;40181;51.560;13.000;2022-12-07T03:37:04;10.15;;;7.82;;
54269;SDS011;40181;51.560;13.000;2022-12-07T03:39:41;12.27;;;8.63;;
54269;SDS011;40181;51.560;13.000;2022-12-07T03:42:17;15.15;;;9.10;;
54269;SDS011;40181;51.560;13.000;2022-12-07T03:44:47;10.65;;;8.45;;
54269;SDS011;40181;51.560;13.000;2022-12-07T03:47:20;9.82;;;8.25;;
54269;SDS011;40181;51.560;13.000;2022-12-07T03:50:00;11.13;;;9.25;;
54269;SDS011;40181;51.560;13.000;2022-12-07T03:52:35;11.90;;;8.60;;
54269;SDS011;40181;51.560;13.000;2022-12-07T03:55:11;13.15;;;9.40;;
54269;SDS011;40181;51.560;13.000;2022-12-07T03:57:47;9.70;;;8.25;;
54269;SDS011;40181;51.560;13.000;2022-12-07T04:00:21;10.05;;;8.18;;
54269;SDS011;40181;51.560;13.000;2022-12-07T04:02:54;9.80;;;7.47;;
54269;SDS011;40181;51.560;13.000;2022-12-07T04:05:24;9.55;;;7.78;;
54269;SDS011;40181;51.560;13.000;2022-12-07T04:07:53;9.05;;;7.65;;
54269;SDS011;40181;51.560;13.000;2022-12-07T04:10:23;11.55;;;9.27;;
54269;SDS011;40181;51.560;13.000;2022-12-07T04:12:52;9.75;;;7.80;;
54269;SDS011;40181;51.560;13.000;2022-12-07T04:15:21;7.82;;;5.97;;
54269;SDS011;40181;51.560;13.000;2022-12-07T04:17:50;9.02;;;6.57;;
54269;SDS011;40181;51.560;13.000;2022-12-07T04:20:22;8.93;;;6.95;;
54269;SDS011;40181;51.560;13.000;2022-12-07T04:22:52;8.82;;;6.63;;
54269;SDS011;40181;51.560;13.000;2022-12-07T04:25:21;10.52;;;8.13;;
54269;SDS011;40181;51.560;13.000;2022-12-07T04:27:50;11.25;;;7.53;;
54269;SDS011;40181;51.560;13.000;2022-12-07T04:30:20;8.13;;;7.13;;
54269;SDS011;40181;51.560;13.000;2022-12-07T04:32:49;9.23;;;7.15;;
54269;SDS011;40181;51.560;13.000;2022-12-07T04:35:21;10.90;;;7.90;;
54269;SDS011;40181;51.560;13.000;2022-12-07T04:37:50;11.45;;;8.00;;
54269;SDS011;40181;51.560;13.000;2022-12-07T04:40:19;12.15;;;7.85;;
54269;SDS011;40181;51.560;13.000;2022-12-07T04:42:48;10.10;;;7.72;;
54269;SDS011;40181;51.560;13.000;2022-12-07T04:45:17;10.10;;;7.70;;
54269;SDS011;40181;51.560;13.000;2022-12-07T04:47:47;13.25;;;9.55;;
54269;SDS011;40181;51.560;13.000;2022-12-07T04:50:16;13.60;;;9.07;;
54269;SDS011;40181;51.560;13.000;2022-12-07T04:52:48;10.80;;;8.23;;
54269;SDS011;40181;51.560;13.000;2022-12-07T04:55:17;8.98;;;6.50;;
54269;SDS011;40181;51.560;13.000;2022-12-07T04:57:46;8.68;;;6.88;;
54269;SDS011;40181;51.560;13.000;2022-12-07T05:00:16;9.07;;;7.47;;
54269;SDS011;40181;51.560;13.000;2022-12-07T05:02:46;8.77;;;7.53;;
54269;SDS011;40181;51.560;13.000;2022-12-07T05:05:15;12.95;;;9.27;;
54269;SDS011;40181;51.560;13.000;2022-12-07T05:07:44;7.97;;;7.05;;
54269;SDS011;40181;51.560;13.000;2022-12-07T05:10:16;10.73;;;8.23;;
54269;SDS011;40181;51.560;13.000;2022-12-07T05:12:45;11.60;;;7.85;;
54269;SDS011;40181;51.560;13.000;2022-12-07T05:15:15;10.65;;;7.43;;
54269;SDS011;40181;51.560;13.000;2022-12-07T05:17:44;12.63;;;9.05;;
54269;SDS011;40181;51.560;13.000;2022-12-07T05:20:14;10.60;;;8.27;;
54269;SDS011;40181;51.560;13.000;2022-12-07T05:22:43;10.13;;;8.77;;
54269;SDS011;40181;51.560;13.000;2022-12-07T05:25:15;11.45;;;8.98;;
54269;SDS011;40181;51.560;13.000;2022-12-07T05:27:44;9.43;;;7.85;;
54269;SDS011;40181;51.560;13.000;2022-12-07T05:30:13;11.05;;;8.75;;
54269;SDS011;40181;51.560;13.000;2022-12-07T05:32:43;8.27;;;7.20;;
54269;SDS011;40181;51.560;13.000;2022-12-07T05:35:12;9.18;;;7.00;;
54269;SDS011;40181;51.560;13.000;2022-12-07T05:37:41;9.75;;;7.25;;
54269;SDS011;40181;51.560;13.000;2022-12-07T05:40:12;12.80;;;9.75;;
54269;SDS011;40181;51.560;13.000;2022-12-07T05:42:45;10.80;;;9.27;;
54269;SDS011;40181;51.560;13.000;2022-12-07T05:45:15;13.38;;;8.55;;
54269;SDS011;40181;51.560;13.000;2022-12-07T05:47:44;10.25;;;7.20;;
54269;SDS011;40181;51.560;13.000;2022-12-07T05:50:13;14.63;;;10.73;;
54269;SDS011;40181;51.560;13.000;2022-12-07T05:52:43;9.60;;;7.95;;
54269;SDS011;40181;51.560;13.000;2022-12-07T05:55:12;13.50;;;9.45;;
54269;SDS011;40181;51.560;13.000;2022-12-07T05:57:44;10.45;;;8.35;;
54269;SDS011;40181;51.560;13.000;2022-12-07T06:00:37;9.25;;;7.88;;
54269;SDS011;40181;51.560;13.000;2022-12-07T06:03:04;10.05;;;8.48;;
54269;SDS011;40181;51.560;13.000;2022-12-07T06:05:33;14.93;;;9.60;;
54269;SDS011;40181;51.560;13.000;2022-12-07T06:08:03;7.43;;;6.45;;
54269;SDS011;40181;51.560;13.000;2022-12-07T06:10:35;12.37;;;8.80;;
54269;SDS011;40181;51.560;13.000;2022-12-07T06:13:04;11.40;;;7.53;;
54269;SDS011;40181;51.560;13.000;2022-12-07T06:15:30;11.25;;;8.95;;
54269;SDS011;40181;51.560;13.000;2022-12-07T06:17:59;7.32;;;6.07;;
54269;SDS011;40181;51.560;13.000;2022-12-07T06:20:29;9.02;;;7.97;;
54269;SDS011;40181;51.560;13.000;2022-12-07T06:22:58;9.52;;;7.13;;
54269;SDS011;40181;51.560;13.000;2022-12-07T06:25:27;10.20;;;7.75;;
54269;SDS011;40181;51.560;13.000;2022-12-07T06:28:00;11.52;;;7.78;;
54269;SDS011;40181;51.560;13.000;2022-12-07T06:30:29;14.65;;;10.38;;
54269;SDS011;40181;51.560;13.000;2022-12-07T06:32:58;8.20;;;7.07;;
54269;SDS011;40181;51.560;13.000;2022-12-07T06:35:27;10.93;;;8.70;;
54269;SDS011;40181;51.560;13.000;2022-12-07T06:37:56;10.55;;;7.97;;
54269;SDS011;40181;51.560;13.000;2022-12-07T06:40:26;9.85;;;8.48;;
54269;SDS011;40181;51.560;13.000;2022-12-07T06:42:55;9.50;;;7.30;;
54269;SDS011;40181;51.560;13.000;2022-12-07T06:45:27;12.27;;;7.93;;
54269;SDS011;40181;51.560;13.000;2022-12-07T06:47:56;10.55;;;8.10;;
54269;SDS011;40181;51.560;13.000;2022-12-07T06:50:25;10.57;;;9.05;;
54269;SDS011;40181;51.560;13.000;2022-12-07T06:52:54;11.38;;;8.32;;
54269;SDS011;40181;51.560;13.000;2022-12-07T06:55:23;16.30;;;9.70;;
54269;SDS011;40181;51.560;13.000;2022-12-07T06:57:53;10.82;;;9.23;;
54269;SDS011;40181;51.560;13.000;2022-12-07T07:00:23;12.55;;;9.32;;
54269;SDS011;40181;51.560;13.000;2022-12-07T07:02:55;11.20;;;9.13;;
54269;SDS011;40181;51.560;13.000;2022-12-07T07:05:24;12.98;;;8.25;;
54269;SDS011;40181;51.560;13.000;2022-12-07T07:07:53;9.73;;;7.13;;
54269;SDS011;40181;51.560;13.000;2022-12-07T07:10:22;10.60;;;8.80;;
54269;SDS011;40181;51.560;13.000;2022-12-07T07:12:51;10.85;;;8.10;;
54269;SDS011;40181;51.560;13.000;2022-12-07T07:15:21;9.90;;;7.78;;
54269;SDS011;40181;51.560;13.000;2022-12-07T07:17:53;8.90;;;7.78;;
54269;SDS011;40181;51.560;13.000;2022-12-07T07:20:22;10.63;;;7.50;;
54269;SDS011;40181;51.560;13.000;2022-12-07T07:22:53;12.05;;;7.10;;
54269;SDS011;40181;51.560;13.000;2022-12-07T07:25:23;9.85;;;8.30;;
54269;SDS011;40181;51.560;13.000;2022-12-07T07:27:52;7.78;;;6.97;;
54269;SDS011;40181;51.560;13.000;2022-12-07T07:30:21;13.90;;;9.05;;
54269;SDS011;40181;51.560;13.000;2022-12-07T07:32:55;9.45;;;8.23;;
54269;SDS011;40181;51.560;13.000;2022-12-07T07:35:25;10.13;;;7.72;;
54269;SDS011;40181;51.560;13.000;2022-12-07T07:37:55;9.60;;;7.45;;
54269;SDS011;40181;51.560;13.000;2022-12-07T07:40:25;15.07;;;9.82;;
54269;SDS011;40181;51.560;13.000;2022-12-07T07:42:56;9.43;;;7.25;;
54269;SDS011;40181;51.560;13.000;2022-12-07T07:45:26;8.30;;;6.87;;
54269;SDS011;40181;51.560;13.000;2022-12-07T07:47:58;8.20;;;6.93;;
54269;SDS011;40181;51.560;13.000;2022-12-07T07:50:27;10.02;;;7.88;;
54269;SDS011;40181;51.560;13.000;2022-12-07T07:52:56;8.70;;;6.80;;
54269;SDS011;40181;51.560;13.000;2022-12-07T07:55:26;8.15;;;6.38;;
54269;SDS011;40181;51.560;13.000;2022-12-07T07:57:55;8.07;;;6.13;;
54269;SDS011;40181;51.560;13.000;2022-12-07T08:00:24;7.97;;;6.18;;
54269;SDS011;40181;51.560;13.000;2022-12-07T08:02:54;8.60;;;5.82;;
54269;SDS011;40181;51.560;13.000;2022-12-07T08:05:25;8.70;;;7.80;;
54269;SDS011;40181;51.560;13.000;2022-12-07T08:07:54;9.02;;;7.45;;
54269;SDS011;40181;51.560;13.000;2022-12-07T08:10:25;9.38;;;6.55;;
54269;SDS011;40181;51.560;13.000;2022-12-07T08:12:54;13.23;;;7.63;;
54269;SDS011;40181;51.560;13.000;2022-12-07T08:15:39;8.93;;;6.40;;
54269;SDS011;40181;51.560;13.000;2022-12-07T08:18:14;9.75;;;6.28;;
54269;SDS011;40181;51.560;13.000;2022-12-07T08:20:43;8.77;;;6.55;;
54269;SDS011;40181;51.560;13.000;2022-12-07T08:23:13;12.07;;;5.93;;
54269;SDS011;40181;51.560;13.000;2022-12-07T08:25:42;9.20;;;7.95;;
54269;SDS011;40181;51.560;13.000;2022-12-07T08:28:11;11.93;;;6.65;;
54269;SDS011;40181;51.560;13.000;2022-12-07T08:30:40;9.05;;;6.32;;
54269;SDS011;40181;51.560;13.000;2022-12-07T08:33:10;7.93;;;6.20;;
54269;SDS011;40181;51.560;13.000;2022-12-07T08:35:42;9.13;;;6.97;;
54269;SDS011;40181;51.560;13.000;2022-12-07T08:38:11;10.63;;;8.48;;
54269;SDS011;40181;51.560;13.000;2022-12-07T08:40:40;7.85;;;6.50;;
54269;SDS011;40181;51.560;13.000;2022-12-07T08:43:09;8.02;;;6.20;;
54269;SDS011;40181;51.560;13.000;2022-12-07T08:45:39;6.43;;;4.43;;
54269;SDS011;40181;51.560;13.000;2022-12-07T08:50:47;7.43;;;6.65;;
54269;SDS011;40181;51.560;13.000;2022-12-07T08:53:17;6.38;;;5.40;;
54269;SDS011;40181;51.560;13.000;2022-12-07T08:55:46;7.53;;;5.85;;
54269;SDS011;40181;51.560;13.000;2022-12-07T08:58:16;10.27;;;6.47;;
54269;SDS011;40181;51.560;13.000;2022-12-07T09:00:45;7.63;;;5.68;;
54269;SDS011;40181;51.560;13.000;2022-12-07T09:03:18;9.80;;;6.77;;
54269;SDS011;40181;51.560;13.000;2022-12-07T09:05:47;7.70;;;6.25;;
54269;SDS011;40181;51.560;13.000;2022-12-07T09:08:16;8.15;;;5.88;;
54269;SDS011;40181;51.560;13.000;2022-12-07T09:10:45;6.40;;;5.35;;
54269;SDS011;40181;51.560;13.000;2022-12-07T09:13:15;5.78;;;5.18;;
54269;SDS011;40181;51.560;13.000;2022-12-07T09:15:44;7.35;;;5.70;;
54269;SDS011;40181;51.560;13.000;2022-12-07T09:18:13;10.05;;;6.57;;
54269;SDS011;40181;51.560;13.000;2022-12-07T09:20:45;12.75;;;5.68;;
54269;SDS011;40181;51.560;13.000;2022-12-07T09:23:14;7.88;;;5.55;;
54269;SDS011;40181;51.560;13.000;2022-12-07T09:25:44;8.52;;;5.70;;
54269;SDS011;40181;51.560;13.000;2022-12-07T09:28:13;10.57;;;5.80;;
54269;SDS011;40181;51.560;13.000;2022-12-07T09:30:44;7.03;;;5.30;;
54269;SDS011;40181;51.560;13.000;2022-12-07T09:33:14;9.68;;;6.65;;
54269;SDS011;40181;51.560;13.000;2022-12-07T09:35:46;8.93;;;6.28;;
54269;SDS011;40181;51.560;13.000;2022-12-07T09:40:46;10.88;;;5.88;;
54269;SDS011;40181;51.560;13.000;2022-12-07T09:43:17;6.78;;;5.88;;
54269;SDS011;40181;51.560;13.000;2022-12-07T09:45:49;8.82;;;5.53;;
54269;SDS011;40181;51.560;13.000;2022-12-07T09:48:25;7.78;;;6.60;;
54269;SDS011;40181;51.560;13.000;2022-12-07T09:51:00;7.85;;;6.18;;
54269;SDS011;40181;51.560;13.000;2022-12-07T09:53:32;9.55;;;5.32;;
54269;SDS011;40181;51.560;13.000;2022-12-07T09:56:05;7.68;;;5.43;;
54269;SDS011;40181;51.560;13.000;2022-12-07T09:58:36;8.10;;;6.00;;
54269;SDS011;40181;51.560;13.000;2022-12-07T10:01:09;8.05;;;5.57;;
54269;SDS011;40181;51.560;13.000;2022-12-07T10:03:48;9.45;;;6.28;;
54269;SDS011;40181;51.560;13.000;2022-12-07T10:06:20;7.65;;;5.70;;
54269;SDS011;40181;51.560;13.000;2022-12-07T10:08:50;5.70;;;4.95;;
54269;SDS011;40181;51.560;13.000;2022-12-07T10:11:19;8.60;;;5.07;;
54269;SDS011;40181;51.560;13.000;2022-12-07T10:13:49;5.47;;;4.18;;
54269;SDS011;40181;51.560;13.000;2022-12-07T10:19:22;2.45;;;2.08;;
54269;SDS011;40181;51.560;13.000;2022-12-07T10:22:09;2.67;;;2.20;;
54269;SDS011;40181;51.560;13.000;2022-12-07T10:24:40;2.97;;;2.30;;
54269;SDS011;40181;51.560;13.000;2022-12-07T10:27:18;6.55;;;1.98;;
54269;SDS011;40181;51.560;13.000;2022-12-07T10:30:01;3.20;;;2.17;;
54269;SDS011;40181;51.560;13.000;2022-12-07T10:35:22;6.28;;;1.58;;
54269;SDS011;40181;51.560;13.000;2022-12-07T10:37:55;1.38;;;1.27;;
54269;SDS011;40181;51.560;13.000;2022-12-07T10:40:30;2.45;;;1.83;;
54269;SDS011;40181;51.560;13.000;2022-12-07T10:43:06;1.40;;;1.20;;
54269;SDS011;40181;51.560;13.000;2022-12-07T10:46:01;1.67;;;1.25;;
54269;SDS011;40181;51.560;13.000;2022-12-07T10:48:59;1.70;;;1.33;;
54269;SDS011;40181;51.560;13.000;2022-12-07T10:51:46;3.42;;;1.23;;
54269;SDS011;40181;51.560;13.000;2022-12-07T10:54:24;2.28;;;1.50;;
54269;SDS011;40181;51.560;13.000;2022-12-07T10:57:14;1.30;;;1.20;;
54269;SDS011;40181;51.560;13.000;2022-12-07T11:00:09;1.58;;;1.45;;
54269;SDS011;40181;51.560;13.000;2022-12-07T11:06:14;1.95;;;1.60;;
54269;SDS011;40181;51.560;13.000;2022-12-07T11:09:00;2.85;;;1.40;;
54269;SDS011;40181;51.560;13.000;2022-12-07T11:11:54;2.38;;;1.35;;
54269;SDS011;40181;51.560;13.000;2022-12-07T11:14:37;1.90;;;1.45;;
54269;SDS011;40181;51.560;13.000;2022-12-07T11:17:17;1.65;;;1.50;;
54269;SDS011;40181;51.560;13.000;2022-12-07T11:20:00;2.30;;;1.77;;
54269;SDS011;40181;51.560;13.000;2022-12-07T11:22:46;2.65;;;1.75;;
54269;SDS011;40181;51.560;13.000;2022-12-07T11:25:29;2.10;;;1.60;;
54269;SDS011;40181;51.560;13.000;2022-12-07T11:28:06;2.15;;;1.38;;
54269;SDS011;40181;51.560;13.000;2022-12-07T11:30:52;1.77;;;1.60;;
54269;SDS011;40181;51.560;13.000;2022-12-07T11:33:29;5.03;;;2.10;;
54269;SDS011;40181;51.560;13.000;2022-12-07T11:36:09;1.75;;;1.65;;
54269;SDS011;40181;51.560;13.000;2022-12-07T11:38:54;4.65;;;2.58;;
54269;SDS011;40181;51.560;13.000;2022-12-07T11:41:31;2.35;;;2.08;;
54269;SDS011;40181;51.560;13.000;2022-12-07T11:44:05;4.47;;;2.85;;
54269;SDS011;40181;51.560;13.000;2022-12-07T11:46:43;2.00;;;1.80;;
54269;SDS011;40181;51.560;13.000;2022-12-07T11:49:19;2.60;;;2.38;;
54269;SDS011;40181;51.560;13.000;2022-12-07T11:52:09;4.35;;;2.65;;
54269;SDS011;40181;51.560;13.000;2022-12-07T11:54:50;4.25;;;2.83;;
54269;SDS011;40181;51.560;13.000;2022-12-07T11:57:25;3.35;;;2.58;;
54269;SDS011;40181;51.560;13.000;2022-12-07T12:00:11;2.63;;;2.42;;
54269;SDS011;40181;51.560;13.000;2022-12-07T12:02:45;3.40;;;2.47;;
54269;SDS011;40181;51.560;13.000;2022-12-07T12:05:22;5.22;;;3.50;;
54269;SDS011;40181;51.560;13.000;2022-12-07T12:07:55;3.40;;;2.85;;
54269;SDS011;40181;51.560;13.000;2022-12-07T12:10:41;3.20;;;2.72;;
54269;SDS011;40181;51.560;13.000;2022-12-07T12:13:29;4.07;;;3.22;;
54269;SDS011;40181;51.560;13.000;2022-12-07T12:16:31;3.83;;;2.85;;
54269;SDS011;40181;51.560;13.000;2022-12-07T12:19:38;3.90;;;3.25;;
54269;SDS011;40181;51.560;13.000;2022-12-07T12:22:12;4.00;;;3.05;;
54269;SDS011;40181;51.560;13.000;2022-12-07T12:24:47;4.82;;;3.40;;
54269;SDS011;40181;51.560;13.000;2022-12-07T12:27:21;3.10;;;2.53;;
54269;SDS011;40181;51.560;13.000;2022-12-07T12:29:57;5.03;;;3.25;;
54269;SDS011;40181;51.560;13.000;2022-12-07T12:32:32;5.03;;;2.72;;
54269;SDS011;40181;51.560;13.000;2022-12-07T12:35:21;10.10;;;3.03;;
54269;SDS011;40181;51.560;13.000;2022-12-07T12:40:58;4.88;;;3.60;;
54269;SDS011;40181;51.560;13.000;2022-12-07T12:43:42;4.25;;;3.47;;
54269;SDS011;40181;51.560;13.000;2022-12-07T12:49:32;4.47;;;3.33;;
54269;SDS011;40181;51.560;13.000;2022-12-07T12:58:36;7.10;;;4.65;;
54269;SDS011;40181;51.560;13.000;2022-12-07T13:04:21;5.50;;;4.18;;
54269;SDS011;40181;51.560;13.000;2022-12-07T13:22:42;4.10;;;3.70;;
54269;SDS011;40181;51.560;13.000;2022-12-07T13:25:31;4.07;;;3.65;;
54269;SDS011;40181;51.560;13.000;2022-12-07T13:28:11;4.25;;;3.17;;
54269;SDS011;40181;51.560;13.000;2022-12-07T13:30:53;7.82;;;3.70;;
54269;SDS011;40181;51.560;13.000;2022-12-07T13:33:43;4.20;;;2.75;;
54269;SDS011;40181;51.560;13.000;2022-12-07T13:36:17;3.25;;;2.90;;
54269;SDS011;40181;51.560;13.000;2022-12-07T13:38:56;2.67;;;2.35;;
54269;SDS011;40181;51.560;13.000;2022-12-07T13:41:27;3.33;;;2.58;;
54269;SDS011;40181;51.560;13.000;2022-12-07T13:44:01;2.92;;;2.40;;
54269;SDS011;40181;51.560;13.000;2022-12-07T13:46:41;4.80;;;2.42;;
54269;SDS011;40181;51.560;13.000;2022-12-07T13:49:22;3.58;;;2.58;;
54269;SDS011;40181;51.560;13.000;2022-12-07T13:52:08;2.28;;;1.95;;
54269;SDS011;40181;51.560;13.000;2022-12-07T13:54:45;3.33;;;2.53;;
54269;SDS011;40181;51.560;13.000;2022-12-07T13:57:16;5.57;;;1.85;;
54269;SDS011;40181;51.560;13.000;2022-12-07T13:59:46;2.25;;;1.90;;
54269;SDS011;40181;51.560;13.000;2022-12-07T14:02:19;2.17;;;1.98;;
54269;SDS011;40181;51.560;13.000;2022-12-07T14:04:52;4.00;;;2.67;;
54269;SDS011;40181;51.560;13.000;2022-12-07T14:07:44;6.25;;;2.25;;
54269;SDS011;40181;51.560;13.000;2022-12-07T14:10:23;3.58;;;2.17;;
54269;SDS011;40181;51.560;13.000;2022-12-07T14:12:54;6.03;;;4.07;;
54269;SDS011;40181;51.560;13.000;2022-12-07T14:15:25;3.65;;;2.95;;
54269;SDS011;40181;51.560;13.000;2022-12-07T14:17:58;5.15;;;2.50;;
54269;SDS011;40181;51.560;13.000;2022-12-07T14:20:30;5.78;;;3.92;;
54269;SDS011;40181;51.560;13.000;2022-12-07T14:23:05;4.25;;;3.00;;
54269;SDS011;40181;51.560;13.000;2022-12-07T14:25:51;5.95;;;4.20;;
54269;SDS011;40181;51.560;13.000;2022-12-07T14:28:25;3.95;;;3.10;;
54269;SDS011;40181;51.560;13.000;2022-12-07T14:30:56;6.40;;;3.00;;
54269;SDS011;40181;51.560;13.000;2022-12-07T14:33:26;6.90;;;3.80;;
54269;SDS011;40181;51.560;13.000;2022-12-07T14:35:55;5.25;;;3.90;;
54269;SDS011;40181;51.560;13.000;2022-12-07T14:38:28;4.22;;;3.63;;
54269;SDS011;40181;51.560;13.000;2022-12-07T14:40:57;4.95;;;3.53;;
54269;SDS011;40181;51.560;13.000;2022-12-07T14:43:46;6.40;;;4.40;;
54269;SDS011;40181;51.560;13.000;2022-12-07T14:46:16;7.57;;;3.88;;
54269;SDS011;40181;51.560;13.000;2022-12-07T14:48:45;3.58;;;3.10;;
54269;SDS011;40181;51.560;13.000;2022-12-07T14:51:14;5.38;;;3.58;;
54269;SDS011;40181;51.560;13.000;2022-12-07T14:53:48;3.15;;;2.42;;
54269;SDS011;40181;51.560;13.000;2022-12-07T14:56:19;2.97;;;2.45;;
54269;SDS011;40181;51.560;13.000;2022-12-07T14:58:48;7.07;;;4.05;;
54269;SDS011;40181;51.560;13.000;2022-12-07T15:01:17;3.67;;;2.53;;
54269;SDS011;40181;51.560;13.000;2022-12-07T15:03:46;3.47;;;2.33;;
54269;SDS011;40181;51.560;13.000;2022-12-07T15:06:16;5.80;;;3.20;;
54269;SDS011;40181;51.560;13.000;2022-12-07T15:08:49;8.10;;;3.10;;
54269;SDS011;40181;51.560;13.000;2022-12-07T15:11:20;5.18;;;2.92;;
54269;SDS011;40181;51.560;13.000;2022-12-07T15:13:49;3.90;;;2.40;;
54269;SDS011;40181;51.560;13.000;2022-12-07T15:16:31;4.15;;;2.70;;
54269;SDS011;40181;51.560;13.000;2022-12-07T15:19:00;3.83;;;2.50;;
54269;SDS011;40181;51.560;13.000;2022-12-07T15:21:29;2.75;;;2.28;;
54269;SDS011;40181;51.560;13.000;2022-12-07T15:24:01;4.97;;;2.63;;
54269;SDS011;40181;51.560;13.000;2022-12-07T15:26:31;2.45;;;2.25;;
54269;SDS011;40181;51.560;13.000;2022-12-07T15:29:00;3.33;;;2.72;;
54269;SDS011;40181;51.560;13.000;2022-12-07T15:31:30;3.33;;;2.58;;
54269;SDS011;40181;51.560;13.000;2022-12-07T15:33:59;4.68;;;3.30;;
54269;SDS011;40181;51.560;13.000;2022-12-07T15:36:29;2.92;;;2.30;;
54269;SDS011;40181;51.560;13.000;2022-12-07T15:39:03;3.90;;;2.63;;
54269;SDS011;40181;51.560;13.000;2022-12-07T15:41:33;3.58;;;3.08;;
54269;SDS011;40181;51.560;13.000;2022-12-07T15:44:03;3.10;;;2.40;;
54269;SDS011;40181;51.560;13.000;2022-12-07T15:46:45;3.80;;;2.55;;
54269;SDS011;40181;51.560;13.000;2022-12-07T15:49:15;2.75;;;2.45;;
54269;SDS011;40181;51.560;13.000;2022-12-07T15:51:46;8.02;;;3.60;;
54269;SDS011;40181;51.560;13.000;2022-12-07T15:54:19;3.22;;;2.20;;
54269;SDS011;40181;51.560;13.000;2022-12-07T15:56:50;1.95;;;1.80;;
54269;SDS011;40181;51.560;13.000;2022-12-07T15:59:19;4.97;;;2.25;;
54269;SDS011;40181;51.560;13.000;2022-12-07T16:01:49;2.63;;;2.13;;